createdAt,value
2018-11-28T00:00:31.518Z,19.93
2018-11-28T00:03:04.112Z,19.07
2018-11-28T00:05:32.624Z,17.97
2018-11-28T00:08:01.312Z,19.23
2018-11-28T00:10:29.850Z,18.77
2018-11-28T00:12:58.519Z,19.73
2018-11-28T00:15:27.064Z,19.10
2018-11-28T00:17:55.742Z,18.63
2018-11-28T00:20:24.481Z,19.87
2018-11-28T00:22:53.022Z,19.27
2018-11-28T00:25:21.543Z,18.90
2018-11-28T00:27:50.108Z,19.07
2018-11-28T00:30:22.492Z,19.47
2018-11-28T00:32:51.241Z,20.07
2018-11-28T00:35:21.121Z,20.13
2018-11-28T00:37:49.806Z,19.07
2018-11-28T00:40:19.858Z,18.43
2018-11-28T00:42:48.758Z,19.07
2018-11-28T00:45:20.587Z,19.53
2018-11-28T00:47:49.159Z,19.73
2018-11-28T00:50:24.839Z,19.63
2018-11-28T00:52:53.431Z,21.60
2018-11-28T00:55:22.010Z,19.63
2018-11-28T00:57:50.615Z,21.13
2018-11-28T01:00:20.858Z,24.33
2018-11-28T01:02:49.990Z,24.17
2018-11-28T01:05:18.819Z,24.57
2018-11-28T01:07:49.379Z,25.33
2018-11-28T01:10:19.259Z,23.97
2018-11-28T01:12:48.514Z,23.93
2018-11-28T01:15:18.284Z,24.00
2018-11-28T01:17:46.997Z,23.97
2018-11-28T01:20:17.612Z,25.13
2018-11-28T01:22:46.206Z,25.80
2018-11-28T01:25:15.956Z,24.03
2018-11-28T01:27:44.636Z,25.13
2018-11-28T01:30:19.198Z,24.67
2018-11-28T01:32:47.943Z,24.47
2018-11-28T01:35:18.772Z,25.40
2018-11-28T01:37:47.341Z,26.63
2018-11-28T01:40:17.914Z,26.90
2018-11-28T01:42:46.823Z,26.47
2018-11-28T01:45:18.347Z,27.20
2018-11-28T01:47:47.066Z,25.60
2018-11-28T01:50:16.718Z,26.73
2018-11-28T01:52:45.352Z,24.70
2018-11-28T01:55:16.091Z,25.67
2018-11-28T01:57:44.688Z,24.53
2018-11-28T02:00:17.201Z,23.90
2018-11-28T02:02:46.275Z,24.00
2018-11-28T02:05:14.994Z,23.97
2018-11-28T02:07:44.023Z,23.03
2018-11-28T02:10:13.874Z,24.03
2018-11-28T02:12:42.590Z,22.80
2018-11-28T02:15:16.035Z,22.47
2018-11-28T02:17:44.723Z,21.30
2018-11-28T02:20:14.370Z,22.87
2018-11-28T02:22:42.890Z,19.37
2018-11-28T02:25:13.647Z,21.13
2018-11-28T02:27:42.311Z,20.23
2018-11-28T02:30:16.733Z,20.87
2018-11-28T02:32:46.070Z,20.63
2018-11-28T02:35:15.398Z,20.57
2018-11-28T02:37:44.083Z,21.13
2018-11-28T02:40:13.626Z,20.17
2018-11-28T02:42:42.186Z,20.73
2018-11-28T02:45:16.587Z,19.13
2018-11-28T02:47:45.235Z,19.27
2018-11-28T02:50:13.885Z,20.87
2018-11-28T02:52:42.997Z,20.47
2018-11-28T02:55:13.612Z,19.33
2018-11-28T02:57:43.319Z,20.00
2018-11-28T03:00:18.036Z,18.33
2018-11-28T03:02:46.667Z,20.03
2018-11-28T03:05:15.383Z,19.73
2018-11-28T03:07:43.977Z,19.73
2018-11-28T03:10:14.731Z,18.60
2018-11-28T03:12:43.442Z,18.73
2018-11-28T03:15:14.529Z,18.97
2018-11-28T03:17:43.198Z,19.87
2018-11-28T03:20:12.237Z,18.77
2018-11-28T03:22:40.767Z,21.00
2018-11-28T03:25:11.420Z,20.00
2018-11-28T03:27:40.108Z,20.03
2018-11-28T03:30:14.916Z,20.90
2018-11-28T03:32:43.495Z,20.83
2018-11-28T03:35:13.380Z,19.60
2018-11-28T03:37:41.995Z,18.50
2018-11-28T03:40:10.643Z,20.60
2018-11-28T03:42:39.818Z,20.30
2018-11-28T03:45:11.741Z,20.37
2018-11-28T03:47:40.498Z,20.53
2018-11-28T03:50:10.427Z,20.73
2018-11-28T03:52:39.827Z,21.40
2018-11-28T03:55:10.692Z,21.97
2018-11-28T03:57:39.235Z,21.80
2018-11-28T04:00:10.836Z,20.97
2018-11-28T04:02:39.519Z,22.90
2018-11-28T04:05:08.493Z,20.93
2018-11-28T04:07:37.025Z,22.03
2018-11-28T04:10:08.678Z,20.90
2018-11-28T04:12:37.209Z,22.20
2018-11-28T04:15:10.694Z,22.50
2018-11-28T04:17:39.260Z,22.30
2018-11-28T04:20:10.739Z,21.77
2018-11-28T04:22:39.314Z,21.57
2018-11-28T04:25:09.196Z,21.30
2018-11-28T04:27:37.755Z,22.67
2018-11-28T04:30:11.927Z,21.60
2018-11-28T04:32:40.721Z,22.13
2018-11-28T04:35:12.704Z,22.13
2018-11-28T04:37:41.584Z,21.83
2018-11-28T04:40:15.160Z,23.23
2018-11-28T04:42:44.173Z,22.30
2018-11-28T04:45:17.936Z,23.07
2018-11-28T04:47:46.644Z,21.80
2018-11-28T04:50:15.254Z,23.33
2018-11-28T04:52:43.964Z,21.20
2018-11-28T04:55:15.485Z,22.27
2018-11-28T04:57:44.626Z,22.23
2018-11-28T05:00:19.210Z,21.30
2018-11-28T05:02:48.045Z,22.20
2018-11-28T05:05:16.579Z,21.53
2018-11-28T05:07:46.107Z,22.13
2018-11-28T05:10:15.851Z,21.90
2018-11-28T05:12:44.366Z,23.00
2018-11-28T05:15:14.150Z,21.90
2018-11-28T05:17:42.998Z,22.80
2018-11-28T05:20:13.763Z,23.73
2018-11-28T05:22:42.301Z,20.23
2018-11-28T05:25:13.558Z,21.43
2018-11-28T05:27:42.120Z,22.20
2018-11-28T05:30:17.749Z,21.93
2018-11-28T05:32:46.880Z,21.17
2018-11-28T05:35:21.313Z,23.23
2018-11-28T05:37:50.491Z,21.93
2018-11-28T05:40:21.324Z,23.37
2018-11-28T05:42:52.793Z,22.20
2018-11-28T05:45:21.570Z,21.43
2018-11-28T05:47:52.046Z,22.33
2018-11-28T05:50:22.777Z,22.67
2018-11-28T05:52:53.438Z,20.60
2018-11-28T05:55:23.625Z,20.40
2018-11-28T05:57:52.268Z,21.27
2018-11-28T06:00:30.022Z,20.87
2018-11-28T06:02:59.736Z,22.80
2018-11-28T06:05:28.559Z,21.70
2018-11-28T06:07:57.117Z,22.47
2018-11-28T06:10:26.351Z,21.43
2018-11-28T06:12:55.326Z,22.83
2018-11-28T06:15:23.976Z,21.50
2018-11-28T06:17:52.667Z,22.77
2018-11-28T06:20:21.959Z,21.40
2018-11-28T06:22:50.663Z,23.20
2018-11-28T06:25:19.755Z,23.17
2018-11-28T06:27:48.557Z,23.50
2018-11-28T06:30:18.841Z,23.27
2018-11-28T06:32:51.253Z,21.53
2018-11-28T06:35:17.042Z,24.53
2018-11-28T06:37:45.836Z,21.87
2018-11-28T06:40:16.531Z,22.77
2018-11-28T06:42:46.663Z,23.63
2018-11-28T06:45:17.883Z,23.60
2018-11-28T06:47:46.828Z,23.97
2018-11-28T06:50:16.580Z,23.53
2018-11-28T06:52:47.043Z,23.47
2018-11-28T06:55:16.757Z,22.70
2018-11-28T06:57:45.338Z,21.33
2018-11-28T07:00:16.045Z,22.73
2018-11-28T07:02:44.662Z,22.93
2018-11-28T07:05:13.740Z,22.53
2018-11-28T07:07:42.450Z,21.57
2018-11-28T07:10:17.118Z,22.67
2018-11-28T07:12:45.874Z,24.73
2018-11-28T07:15:16.203Z,23.43
2018-11-28T07:17:45.168Z,22.43
2018-11-28T07:20:15.730Z,24.67
2018-11-28T07:22:44.335Z,24.50
2018-11-28T07:25:17.105Z,23.33
2018-11-28T07:27:46.667Z,22.57
2018-11-28T07:30:17.560Z,22.77
2018-11-28T07:32:46.669Z,22.63
2018-11-28T07:35:15.631Z,25.63
2018-11-28T07:37:44.346Z,26.00
2018-11-28T07:40:16.501Z,23.87
2018-11-28T07:42:49.302Z,23.17
2018-11-28T07:45:18.744Z,23.20
2018-11-28T07:47:47.346Z,24.83
2018-11-28T07:50:16.395Z,23.90
2018-11-28T07:52:44.910Z,23.53
2018-11-28T07:55:14.198Z,24.43
2018-11-28T07:57:42.876Z,23.90
2018-11-28T08:00:14.762Z,24.67
2018-11-28T08:02:44.050Z,23.03
2018-11-28T08:05:13.120Z,23.10
2018-11-28T08:07:42.375Z,24.07
2018-11-28T08:10:16.822Z,23.93
2018-11-28T08:12:45.827Z,24.27
2018-11-28T08:15:15.099Z,24.10
2018-11-28T08:17:44.144Z,23.43
2018-11-28T08:20:12.730Z,25.03
2018-11-28T08:22:41.328Z,22.93
2018-11-28T08:25:12.790Z,23.37
2018-11-28T08:27:40.184Z,22.17
2018-11-28T08:30:24.619Z,22.47
2018-11-28T08:32:53.703Z,23.97
2018-11-28T08:35:22.511Z,24.37
2018-11-28T08:37:51.423Z,23.70
2018-11-28T08:40:21.404Z,24.10
2018-11-28T08:42:50.778Z,22.33
2018-11-28T08:45:20.473Z,24.17
2018-11-28T08:47:50.134Z,22.17
2018-11-28T08:50:21.248Z,23.27
2018-11-28T08:52:49.834Z,23.50
2018-11-28T08:55:18.464Z,23.53
2018-11-28T08:57:47.180Z,21.63
2018-11-28T09:00:18.639Z,22.00
2018-11-28T09:02:48.275Z,22.73
2018-11-28T09:05:16.842Z,22.93
2018-11-28T09:07:46.002Z,23.60
2018-11-28T09:10:15.592Z,23.17
2018-11-28T09:12:44.720Z,22.50
2018-11-28T09:15:15.331Z,22.50
2018-11-28T09:17:43.972Z,22.73
2018-11-28T09:20:13.612Z,23.60
2018-11-28T09:22:42.167Z,22.63
2018-11-28T09:25:12.187Z,21.47
2018-11-28T09:27:41.546Z,20.60
2018-11-28T09:30:15.379Z,21.07
2018-11-28T09:32:44.070Z,21.17
2018-11-28T09:35:13.382Z,23.00
2018-11-28T09:37:45.591Z,22.10
2018-11-28T09:40:17.520Z,20.33
2018-11-28T09:42:47.811Z,21.07
2018-11-28T09:45:17.583Z,20.87
2018-11-28T09:47:46.246Z,22.33
2018-11-28T09:50:18.877Z,21.83
2018-11-28T09:52:47.666Z,21.40
2018-11-28T09:55:17.532Z,21.87
2018-11-28T09:57:46.166Z,21.03
2018-11-28T10:00:18.021Z,22.30
2018-11-28T10:02:46.826Z,20.07
2018-11-28T10:05:16.870Z,20.53
2018-11-28T10:07:45.471Z,20.43
2018-11-28T10:10:14.574Z,19.77
2018-11-28T10:12:43.395Z,20.47
2018-11-28T10:15:17.454Z,19.37
2018-11-28T10:17:46.337Z,20.50
2018-11-28T10:20:15.822Z,19.33
2018-11-28T10:22:44.884Z,20.90
2018-11-28T10:25:14.564Z,20.23
2018-11-28T10:27:44.150Z,18.50
2018-11-28T10:30:16.182Z,19.23
2018-11-28T10:32:44.819Z,19.20
2018-11-28T10:35:13.502Z,19.70
2018-11-28T10:37:42.113Z,18.27
2018-11-28T10:40:15.525Z,18.70
2018-11-28T10:42:44.514Z,19.33
2018-11-28T10:45:14.325Z,17.77
2018-11-28T10:47:43.014Z,18.13
2018-11-28T10:50:13.983Z,17.77
2018-11-28T10:52:42.840Z,17.47
2018-11-28T10:55:13.583Z,18.97
2018-11-28T10:57:43.174Z,17.47
2018-11-28T11:00:21.531Z,18.10
2018-11-28T11:02:55.290Z,17.93
2018-11-28T11:05:29.205Z,18.00
2018-11-28T11:08:03.009Z,18.37
2018-11-28T11:10:37.302Z,16.77
2018-11-28T11:13:11.808Z,18.27
2018-11-28T11:15:40.472Z,15.77
2018-11-28T11:18:10.960Z,16.73
2018-11-28T11:20:39.044Z,16.37
2018-11-28T11:23:08.758Z,15.47
2018-11-28T11:25:37.378Z,16.63
2018-11-28T11:28:06.446Z,16.50
2018-11-28T11:30:35.177Z,16.33
2018-11-28T11:33:04.128Z,17.40
2018-11-28T11:35:33.362Z,16.03
2018-11-28T11:38:02.006Z,15.93
2018-11-28T11:40:30.662Z,15.60
2018-11-28T11:42:59.244Z,16.63
2018-11-28T11:45:27.929Z,16.67
2018-11-28T11:47:56.540Z,15.57
2018-11-28T11:50:25.171Z,14.87
2018-11-28T11:52:54.078Z,15.30
2018-11-28T11:55:23.199Z,15.83
2018-11-28T11:57:51.770Z,15.17
2018-11-28T12:00:25.963Z,15.13
2018-11-28T12:03:06.651Z,14.23
2018-11-28T12:05:35.509Z,15.03
2018-11-28T12:08:04.210Z,14.67
2018-11-28T12:10:32.946Z,14.87
2018-11-28T12:13:02.313Z,15.13
2018-11-28T12:15:30.928Z,14.90
2018-11-28T12:17:59.947Z,15.07
2018-11-28T12:20:32.407Z,16.00
2018-11-28T12:23:01.111Z,16.33
2018-11-28T12:25:29.908Z,15.40
2018-11-28T12:27:59.138Z,15.13
2018-11-28T12:30:28.235Z,15.57
2018-11-28T12:32:56.736Z,15.13
2018-11-28T12:35:25.689Z,14.50
2018-11-28T12:37:54.250Z,15.43
2018-11-28T12:40:22.943Z,16.63
2018-11-28T12:42:52.691Z,15.43
2018-11-28T12:45:21.950Z,15.33
2018-11-28T12:47:50.558Z,15.70
2018-11-28T12:50:27.297Z,14.93
2018-11-28T12:52:57.271Z,15.40
2018-11-28T12:55:26.019Z,14.80
2018-11-28T12:57:55.767Z,13.87
2018-11-28T13:00:26.762Z,13.70
2018-11-28T13:02:55.515Z,15.50
2018-11-28T13:05:25.570Z,12.93
2018-11-28T13:07:54.835Z,13.50
2018-11-28T13:10:26.606Z,12.50
2018-11-28T13:12:56.276Z,12.70
2018-11-28T13:15:25.991Z,13.57
2018-11-28T13:17:54.582Z,13.40
2018-11-28T13:20:24.047Z,12.80
2018-11-28T13:22:55.011Z,13.90
2018-11-28T13:25:24.815Z,12.53
2018-11-28T13:27:53.513Z,12.33
2018-11-28T13:30:23.047Z,13.33
2018-11-28T13:32:52.259Z,11.77
2018-11-28T13:35:21.882Z,12.90
2018-11-28T13:37:51.695Z,12.33
2018-11-28T13:40:20.992Z,12.00
2018-11-28T13:42:49.600Z,12.87
2018-11-28T13:45:22.486Z,13.37
2018-11-28T13:47:52.364Z,12.83
2018-11-28T13:50:21.109Z,13.27
2018-11-28T13:52:50.215Z,12.73
2018-11-28T13:55:44.015Z,13.27
2018-11-28T13:57:57.321Z,13.37
2018-11-28T14:00:26.523Z,13.50
2018-11-28T14:02:55.188Z,15.40
2018-11-28T14:05:23.797Z,13.27
2018-11-28T14:07:52.482Z,13.20
2018-11-28T14:10:21.285Z,12.60
2018-11-28T14:12:50.648Z,13.77
2018-11-28T14:15:22.052Z,12.87
2018-11-28T14:18:07.410Z,14.23
2018-11-28T14:20:35.948Z,13.80
2018-11-28T14:23:04.526Z,12.87
2018-11-28T14:25:33.476Z,13.33
2018-11-28T14:28:02.162Z,14.07
2018-11-28T14:30:31.215Z,13.63
2018-11-28T14:32:59.761Z,14.53
2018-11-28T14:35:28.318Z,14.53
2018-11-28T14:37:56.884Z,14.30
2018-11-28T14:40:25.927Z,14.17
2018-11-28T14:42:56.630Z,13.67
2018-11-28T14:45:25.784Z,14.93
2018-11-28T14:47:54.391Z,14.17
2018-11-28T14:50:25.180Z,15.90
2018-11-28T14:52:54.871Z,15.10
2018-11-28T14:55:26.471Z,15.43
2018-11-28T14:57:55.051Z,14.90
2018-11-28T15:00:24.667Z,14.53
2018-11-28T15:02:57.507Z,15.23
2018-11-28T15:05:34.978Z,16.00
2018-11-28T15:08:06.443Z,16.40
2018-11-28T15:10:48.107Z,16.13
2018-11-28T15:13:16.671Z,16.93
2018-11-28T15:15:45.198Z,17.17
2018-11-28T15:18:13.778Z,16.67
2018-11-28T15:20:43.115Z,18.80
2018-11-28T15:23:11.709Z,17.20
2018-11-28T15:25:40.247Z,18.23
2018-11-28T15:28:08.895Z,17.40
2018-11-28T15:30:37.439Z,17.90
2018-11-28T15:33:06.052Z,19.00
2018-11-28T15:35:34.559Z,18.63
2018-11-28T15:38:03.163Z,17.80
2018-11-28T15:40:31.711Z,20.03
2018-11-28T15:43:00.337Z,17.97
2018-11-28T15:45:29.669Z,19.20
2018-11-28T15:47:58.219Z,19.43
2018-11-28T15:50:26.815Z,20.27
2018-11-28T15:52:55.434Z,18.70
2018-11-28T15:55:24.075Z,19.80
2018-11-28T15:57:52.640Z,17.40
2018-11-28T16:00:22.743Z,19.50
2018-11-28T16:02:51.341Z,20.20
2018-11-28T16:05:20.017Z,18.87
2018-11-28T16:07:48.686Z,18.83
2018-11-28T16:10:22.551Z,18.47
2018-11-28T16:12:51.569Z,20.00
2018-11-28T16:15:23.650Z,19.93
2018-11-28T16:17:52.267Z,19.93
2018-11-28T16:20:20.956Z,18.93
2018-11-28T16:22:49.577Z,20.27
2018-11-28T16:25:18.130Z,19.50
2018-11-28T16:27:46.818Z,19.67
2018-11-28T16:30:16.203Z,19.10
2018-11-28T16:32:47.358Z,20.27
2018-11-28T16:35:19.051Z,21.40
2018-11-28T16:37:50.841Z,20.30
2018-11-28T16:40:24.059Z,19.77
2018-11-28T16:42:55.006Z,18.50
2018-11-28T16:45:25.844Z,20.60
2018-11-28T16:47:56.992Z,19.53
2018-11-28T16:50:28.428Z,20.50
2018-11-28T16:52:59.692Z,21.43
2018-11-28T16:55:30.805Z,19.93
2018-11-28T16:58:01.862Z,21.43
2018-11-28T17:00:34.407Z,20.17
2018-11-28T17:03:05.103Z,22.07
2018-11-28T17:05:36.254Z,21.20
2018-11-28T17:08:08.234Z,19.77
2018-11-28T17:10:36.942Z,22.50
2018-11-28T17:13:06.046Z,22.87
2018-11-28T17:15:34.683Z,21.30
2018-11-28T17:18:03.280Z,21.43
2018-11-28T17:20:34.329Z,21.57
2018-11-28T17:23:04.223Z,19.77
2018-11-28T17:25:33.337Z,23.80
2018-11-28T17:28:01.934Z,22.60
2018-11-28T17:30:31.098Z,20.57
2018-11-28T17:32:59.734Z,23.30
2018-11-28T17:35:33.343Z,21.47
2018-11-28T17:38:09.823Z,23.47
2018-11-28T17:40:43.181Z,22.43
2018-11-28T17:43:28.951Z,23.13
2018-11-28T17:45:57.607Z,24.13
2018-11-28T17:48:26.280Z,23.37
2018-11-28T17:50:56.018Z,23.30
2018-11-28T17:53:24.945Z,22.43
2018-11-28T17:55:56.201Z,24.23
2018-11-28T17:58:24.835Z,22.10
2018-11-28T18:00:54.560Z,23.90
2018-11-28T18:03:24.105Z,26.67
2018-11-28T18:05:53.879Z,25.57
2018-11-28T18:08:22.464Z,25.10
2018-11-28T18:10:51.115Z,25.63
2018-11-28T18:13:20.012Z,24.50
2018-11-28T18:15:54.730Z,23.67
2018-11-28T18:18:25.549Z,25.00
2018-11-28T18:20:54.213Z,26.23
2018-11-28T18:23:22.759Z,24.73
2018-11-28T18:25:53.265Z,24.40
2018-11-28T18:28:23.380Z,24.83
2018-11-28T18:30:53.713Z,25.63
2018-11-28T18:33:25.338Z,26.10
2018-11-28T18:35:55.373Z,26.47
2018-11-28T18:38:25.408Z,25.87
2018-11-28T18:40:55.471Z,25.13
2018-11-28T18:43:24.762Z,24.73
2018-11-28T18:45:54.894Z,26.07
2018-11-28T18:48:24.958Z,26.43
2018-11-28T18:50:54.994Z,26.27
2018-11-28T18:53:23.843Z,25.53
2018-11-28T18:55:53.681Z,27.27
2018-11-28T18:58:23.464Z,28.13
2018-11-28T19:00:53.214Z,26.17
2018-11-28T19:03:22.963Z,25.00
2018-11-28T19:05:53.330Z,28.43
2018-11-28T19:08:23.570Z,26.70
2018-11-28T19:10:53.257Z,26.80
2018-11-28T19:13:22.928Z,26.93
2018-11-28T19:15:52.548Z,26.93
2018-11-28T19:18:22.552Z,26.70
2018-11-28T19:20:52.683Z,25.97
2018-11-28T19:23:22.413Z,27.67
2018-11-28T19:25:52.316Z,27.33
2018-11-28T19:28:22.125Z,28.53
2018-11-28T19:30:51.976Z,28.67
2018-11-28T19:33:21.956Z,25.63
2018-11-28T19:35:51.787Z,26.43
2018-11-28T19:38:22.415Z,27.77
2018-11-28T19:40:57.469Z,27.07
2018-11-28T19:43:27.088Z,24.80
2018-11-28T19:45:55.814Z,26.60
2018-11-28T19:48:26.439Z,25.67
2018-11-28T19:50:55.939Z,24.27
2018-11-28T19:53:25.588Z,25.03
2018-11-28T19:55:55.084Z,25.67
2018-11-28T19:58:26.682Z,25.57
2018-11-28T20:00:56.730Z,24.63
2018-11-28T20:03:25.464Z,25.00
2018-11-28T20:05:56.500Z,25.53
2018-11-28T20:08:26.114Z,24.37
2018-11-28T20:10:56.204Z,27.10
2018-11-28T20:13:25.508Z,26.33
2018-11-28T20:15:57.095Z,26.33
2018-11-28T20:18:26.276Z,27.17
2018-11-28T20:20:55.752Z,29.70
2018-11-28T20:23:24.494Z,27.43
2018-11-28T20:25:54.205Z,27.63
2018-11-28T20:28:23.919Z,27.13
2018-11-28T20:30:53.706Z,27.80
2018-11-28T20:33:23.466Z,27.27
2018-11-28T20:35:53.291Z,29.03
2018-11-28T20:38:26.875Z,28.80
2018-11-28T20:40:55.492Z,28.60
2018-11-28T20:43:24.107Z,27.07
2018-11-28T20:45:52.774Z,27.30
2018-11-28T20:48:21.447Z,26.87
2018-11-28T20:50:50.728Z,26.67
2018-11-28T20:53:20.715Z,26.97
2018-11-28T20:55:49.924Z,25.47
2018-11-28T20:58:19.278Z,27.47
2018-11-28T21:00:48.049Z,26.37
2018-11-28T21:03:16.659Z,26.00
2018-11-28T21:05:45.719Z,24.80
2018-11-28T21:08:14.428Z,24.30
2018-11-28T21:10:43.426Z,26.73
2018-11-28T21:13:13.598Z,25.20
2018-11-28T21:15:44.050Z,24.63
2018-11-28T21:18:12.717Z,25.77
2018-11-28T21:20:42.799Z,24.63
2018-11-28T21:23:12.908Z,24.80
2018-11-28T21:25:41.525Z,25.03
2018-11-28T21:28:10.231Z,24.53
2018-11-28T21:30:38.908Z,27.13
2018-11-28T21:33:09.480Z,24.97
2018-11-28T21:35:39.578Z,24.63
2018-11-28T21:38:09.058Z,24.60
2018-11-28T21:40:38.468Z,24.30
2018-11-28T21:43:07.811Z,25.30
2018-11-28T21:45:36.850Z,25.93
2018-11-28T21:48:05.835Z,24.80
2018-11-28T21:50:35.197Z,25.07
2018-11-28T21:53:04.178Z,25.50
2018-11-28T21:55:33.434Z,25.03
2018-11-28T21:58:02.508Z,23.93
2018-11-28T22:00:31.433Z,25.53
2018-11-28T22:03:00.357Z,25.33
2018-11-28T22:05:29.276Z,24.20
2018-11-28T22:07:58.198Z,23.63
2018-11-28T22:10:27.806Z,23.83
2018-11-28T22:12:56.900Z,24.83
2018-11-28T22:15:25.814Z,24.97
2018-11-28T22:17:57.670Z,24.90
2018-11-28T22:20:27.138Z,25.50
2018-11-28T22:22:56.077Z,24.80
2018-11-28T22:25:25.798Z,25.33
2018-11-28T22:27:54.751Z,23.47
2018-11-28T22:30:25.682Z,24.70
2018-11-28T22:32:54.227Z,25.10
2018-11-28T22:35:23.649Z,24.77
2018-11-28T22:37:52.959Z,24.27
2018-11-28T22:40:28.735Z,25.00
2018-11-28T22:42:57.574Z,23.03
2018-11-28T22:45:28.395Z,25.17
2018-11-28T22:47:56.972Z,24.77
2018-11-28T22:50:26.298Z,23.87
2018-11-28T22:52:54.866Z,24.37
2018-11-28T22:55:23.486Z,23.40
2018-11-28T22:57:52.185Z,24.87
2018-11-28T23:00:28.875Z,23.00
2018-11-28T23:03:13.320Z,23.00
2018-11-28T23:05:46.402Z,21.83
2018-11-28T23:08:16.167Z,21.57
2018-11-28T23:10:44.875Z,23.10
2018-11-28T23:13:15.710Z,23.70
2018-11-28T23:15:44.312Z,22.77
2018-11-28T23:18:13.164Z,23.33
2018-11-28T23:20:41.917Z,21.67
2018-11-28T23:23:10.711Z,23.00
2018-11-28T23:25:39.322Z,22.60
2018-11-28T23:28:08.483Z,24.40
2018-11-28T23:30:37.921Z,22.07
2018-11-28T23:33:09.014Z,21.67
2018-11-28T23:35:37.840Z,24.17
2018-11-28T23:38:08.042Z,23.47
2018-11-28T23:40:36.818Z,23.60
2018-11-28T23:43:05.804Z,23.70
2018-11-28T23:45:34.362Z,23.83
2018-11-28T23:48:03.093Z,23.03
2018-11-28T23:50:31.682Z,22.97
2018-11-28T23:53:00.433Z,21.97
2018-11-28T23:55:30.220Z,24.40
2018-11-28T23:57:58.776Z,23.17
